sensor_id;sensor_type;location;lat;lon;timestamp;P1;durP1;ratioP1;P2;durP2;ratioP2
11588;SDS011;5850;51.360;12.362;2022-10-16T00:01:46;1.97;;;0.80;;
11588;SDS011;5850;51.360;12.362;2022-10-16T00:04:14;1.03;;;0.93;;
11588;SDS011;5850;51.360;12.362;2022-10-16T00:06:43;2.60;;;0.77;;
11588;SDS011;5850;51.360;12.362;2022-10-16T00:09:11;0.80;;;0.80;;
11588;SDS011;5850;51.360;12.362;2022-10-16T00:11:40;1.47;;;1.00;;
11588;SDS011;5850;51.360;12.362;2022-10-16T00:14:13;0.90;;;0.90;;
11588;SDS011;5850;51.360;12.362;2022-10-16T00:16:42;0.83;;;0.83;;
11588;SDS011;5850;51.360;12.362;2022-10-16T00:19:11;1.63;;;1.10;;
11588;SDS011;5850;51.360;12.362;2022-10-16T00:21:39;0.80;;;0.80;;
11588;SDS011;5850;51.360;12.362;2022-10-16T00:24:09;0.83;;;0.80;;
11588;SDS011;5850;51.360;12.362;2022-10-16T00:26:38;1.33;;;0.90;;
11588;SDS011;5850;51.360;12.362;2022-10-16T00:29:07;0.90;;;0.80;;
11588;SDS011;5850;51.360;12.362;2022-10-16T00:31:36;0.83;;;0.83;;
11588;SDS011;5850;51.360;12.362;2022-10-16T00:34:04;1.60;;;0.77;;
11588;SDS011;5850;51.360;12.362;2022-10-16T00:36:33;1.00;;;0.90;;
11588;SDS011;5850;51.360;12.362;2022-10-16T00:39:02;1.07;;;1.00;;
11588;SDS011;5850;51.360;12.362;2022-10-16T00:41:30;1.20;;;1.10;;
11588;SDS011;5850;51.360;12.362;2022-10-16T00:44:01;1.13;;;1.10;;
11588;SDS011;5850;51.360;12.362;2022-10-16T00:46:50;0.80;;;0.80;;
11588;SDS011;5850;51.360;12.362;2022-10-16T00:49:19;0.80;;;0.80;;
11588;SDS011;5850;51.360;12.362;2022-10-16T00:51:52;1.33;;;1.00;;
11588;SDS011;5850;51.360;12.362;2022-10-16T00:54:22;0.77;;;0.77;;
11588;SDS011;5850;51.360;12.362;2022-10-16T00:56:56;0.73;;;0.73;;
11588;SDS011;5850;51.360;12.362;2022-10-16T00:59:29;1.40;;;1.00;;
11588;SDS011;5850;51.360;12.362;2022-10-16T01:02:04;1.13;;;0.83;;
11588;SDS011;5850;51.360;12.362;2022-10-16T01:04:43;0.90;;;0.80;;
11588;SDS011;5850;51.360;12.362;2022-10-16T01:07:20;0.90;;;0.90;;
11588;SDS011;5850;51.360;12.362;2022-10-16T01:10:43;2.00;;;0.93;;
11588;SDS011;5850;51.360;12.362;2022-10-16T01:13:12;0.90;;;0.90;;
11588;SDS011;5850;51.360;12.362;2022-10-16T01:15:54;1.40;;;0.70;;
11588;SDS011;5850;51.360;12.362;2022-10-16T01:18:46;1.80;;;0.83;;
11588;SDS011;5850;51.360;12.362;2022-10-16T01:21:31;1.00;;;1.00;;
11588;SDS011;5850;51.360;12.362;2022-10-16T01:27:40;1.33;;;0.80;;
11588;SDS011;5850;51.360;12.362;2022-10-16T01:30:11;0.80;;;0.80;;
11588;SDS011;5850;51.360;12.362;2022-10-16T01:32:46;1.97;;;1.00;;
11588;SDS011;5850;51.360;12.362;2022-10-16T01:38:28;0.77;;;0.77;;
11588;SDS011;5850;51.360;12.362;2022-10-16T01:41:06;1.23;;;0.80;;
11588;SDS011;5850;51.360;12.362;2022-10-16T01:43:41;1.63;;;0.80;;
11588;SDS011;5850;51.360;12.362;2022-10-16T01:46:14;1.13;;;1.03;;
11588;SDS011;5850;51.360;12.362;2022-10-16T01:48:46;1.70;;;1.00;;
11588;SDS011;5850;51.360;12.362;2022-10-16T01:51:17;1.33;;;0.80;;
11588;SDS011;5850;51.360;12.362;2022-10-16T01:53:48;2.80;;;1.00;;
11588;SDS011;5850;51.360;12.362;2022-10-16T01:56:21;0.70;;;0.70;;
11588;SDS011;5850;51.360;12.362;2022-10-16T01:59:01;0.97;;;0.97;;
11588;SDS011;5850;51.360;12.362;2022-10-16T02:01:35;1.70;;;0.67;;
11588;SDS011;5850;51.360;12.362;2022-10-16T02:04:17;0.73;;;0.73;;
11588;SDS011;5850;51.360;12.362;2022-10-16T02:06:52;1.50;;;1.07;;
11588;SDS011;5850;51.360;12.362;2022-10-16T02:09:21;1.00;;;0.90;;
11588;SDS011;5850;51.360;12.362;2022-10-16T02:11:50;0.83;;;0.83;;
11588;SDS011;5850;51.360;12.362;2022-10-16T02:17:52;1.03;;;0.90;;
11588;SDS011;5850;51.360;12.362;2022-10-16T02:20:22;0.80;;;0.80;;
11588;SDS011;5850;51.360;12.362;2022-10-16T02:22:55;1.50;;;1.00;;
11588;SDS011;5850;51.360;12.362;2022-10-16T02:25:27;1.17;;;1.07;;
11588;SDS011;5850;51.360;12.362;2022-10-16T02:28:09;1.07;;;1.00;;
11588;SDS011;5850;51.360;12.362;2022-10-16T02:33:20;1.00;;;0.97;;
11588;SDS011;5850;51.360;12.362;2022-10-16T02:35:50;2.20;;;1.00;;
11588;SDS011;5850;51.360;12.362;2022-10-16T02:38:19;1.30;;;1.20;;
11588;SDS011;5850;51.360;12.362;2022-10-16T02:40:48;2.93;;;1.20;;
11588;SDS011;5850;51.360;12.362;2022-10-16T02:43:17;1.20;;;1.10;;
11588;SDS011;5850;51.360;12.362;2022-10-16T02:45:46;1.43;;;1.13;;
11588;SDS011;5850;51.360;12.362;2022-10-16T02:48:14;1.10;;;1.00;;
11588;SDS011;5850;51.360;12.362;2022-10-16T02:50:43;1.23;;;1.13;;
11588;SDS011;5850;51.360;12.362;2022-10-16T02:53:11;1.60;;;1.00;;
11588;SDS011;5850;51.360;12.362;2022-10-16T02:55:40;1.13;;;1.10;;
11588;SDS011;5850;51.360;12.362;2022-10-16T02:58:08;1.13;;;1.10;;
11588;SDS011;5850;51.360;12.362;2022-10-16T03:00:36;1.30;;;1.20;;
11588;SDS011;5850;51.360;12.362;2022-10-16T03:03:05;1.17;;;1.17;;
11588;SDS011;5850;51.360;12.362;2022-10-16T03:05:33;1.10;;;1.10;;
11588;SDS011;5850;51.360;12.362;2022-10-16T03:08:02;1.10;;;1.07;;
11588;SDS011;5850;51.360;12.362;2022-10-16T03:10:30;0.83;;;0.83;;
11588;SDS011;5850;51.360;12.362;2022-10-16T03:12:59;0.97;;;0.83;;
11588;SDS011;5850;51.360;12.362;2022-10-16T03:15:27;0.77;;;0.77;;
11588;SDS011;5850;51.360;12.362;2022-10-16T03:17:59;1.00;;;0.90;;
11588;SDS011;5850;51.360;12.362;2022-10-16T03:20:27;0.90;;;0.90;;
11588;SDS011;5850;51.360;12.362;2022-10-16T03:22:55;1.00;;;1.00;;
11588;SDS011;5850;51.360;12.362;2022-10-16T03:25:24;1.83;;;1.00;;
11588;SDS011;5850;51.360;12.362;2022-10-16T03:27:52;0.80;;;0.80;;
11588;SDS011;5850;51.360;12.362;2022-10-16T03:30:21;3.63;;;1.00;;
11588;SDS011;5850;51.360;12.362;2022-10-16T03:32:49;1.37;;;1.00;;
11588;SDS011;5850;51.360;12.362;2022-10-16T03:35:20;1.90;;;0.90;;
11588;SDS011;5850;51.360;12.362;2022-10-16T03:37:50;1.37;;;1.00;;
11588;SDS011;5850;51.360;12.362;2022-10-16T03:40:19;1.93;;;0.87;;
11588;SDS011;5850;51.360;12.362;2022-10-16T03:42:47;2.30;;;1.23;;
11588;SDS011;5850;51.360;12.362;2022-10-16T03:45:16;2.30;;;0.90;;
11588;SDS011;5850;51.360;12.362;2022-10-16T03:47:44;1.60;;;0.90;;
11588;SDS011;5850;51.360;12.362;2022-10-16T03:50:14;0.93;;;0.90;;
11588;SDS011;5850;51.360;12.362;2022-10-16T03:52:42;1.10;;;1.10;;
11588;SDS011;5850;51.360;12.362;2022-10-16T03:55:11;1.40;;;1.10;;
11588;SDS011;5850;51.360;12.362;2022-10-16T03:57:39;1.00;;;1.00;;
11588;SDS011;5850;51.360;12.362;2022-10-16T04:00:07;0.87;;;0.87;;
11588;SDS011;5850;51.360;12.362;2022-10-16T04:02:36;1.80;;;1.10;;
11588;SDS011;5850;51.360;12.362;2022-10-16T04:05:05;1.17;;;1.07;;
11588;SDS011;5850;51.360;12.362;2022-10-16T04:07:34;1.20;;;1.10;;
11588;SDS011;5850;51.360;12.362;2022-10-16T04:10:02;1.90;;;0.90;;
11588;SDS011;5850;51.360;12.362;2022-10-16T04:12:31;1.00;;;1.00;;
11588;SDS011;5850;51.360;12.362;2022-10-16T04:14:59;1.13;;;1.03;;
11588;SDS011;5850;51.360;12.362;2022-10-16T04:17:28;1.00;;;1.00;;
11588;SDS011;5850;51.360;12.362;2022-10-16T04:19:56;2.33;;;0.93;;
11588;SDS011;5850;51.360;12.362;2022-10-16T04:22:25;2.00;;;1.03;;
11588;SDS011;5850;51.360;12.362;2022-10-16T04:24:53;2.63;;;1.00;;
11588;SDS011;5850;51.360;12.362;2022-10-16T04:27:21;2.17;;;1.10;;
11588;SDS011;5850;51.360;12.362;2022-10-16T04:29:50;2.20;;;1.17;;
11588;SDS011;5850;51.360;12.362;2022-10-16T04:32:19;1.90;;;1.10;;
11588;SDS011;5850;51.360;12.362;2022-10-16T04:34:47;2.00;;;1.00;;
11588;SDS011;5850;51.360;12.362;2022-10-16T04:37:15;1.13;;;1.10;;
11588;SDS011;5850;51.360;12.362;2022-10-16T04:39:44;1.43;;;1.10;;
11588;SDS011;5850;51.360;12.362;2022-10-16T04:42:12;1.00;;;1.00;;
11588;SDS011;5850;51.360;12.362;2022-10-16T04:44:41;0.93;;;0.93;;
11588;SDS011;5850;51.360;12.362;2022-10-16T04:47:09;1.10;;;1.10;;
11588;SDS011;5850;51.360;12.362;2022-10-16T04:49:37;1.23;;;1.20;;
11588;SDS011;5850;51.360;12.362;2022-10-16T04:52:06;4.63;;;1.10;;
11588;SDS011;5850;51.360;12.362;2022-10-16T04:54:35;1.30;;;1.20;;
11588;SDS011;5850;51.360;12.362;2022-10-16T04:57:03;1.63;;;1.20;;
11588;SDS011;5850;51.360;12.362;2022-10-16T04:59:32;1.17;;;1.13;;
11588;SDS011;5850;51.360;12.362;2022-10-16T05:02:00;1.67;;;1.53;;
11588;SDS011;5850;51.360;12.362;2022-10-16T05:04:28;1.00;;;1.00;;
11588;SDS011;5850;51.360;12.362;2022-10-16T05:06:57;1.03;;;1.00;;
11588;SDS011;5850;51.360;12.362;2022-10-16T05:09:25;1.57;;;1.37;;
11588;SDS011;5850;51.360;12.362;2022-10-16T05:11:53;1.87;;;1.10;;
11588;SDS011;5850;51.360;12.362;2022-10-16T05:14:22;3.47;;;0.93;;
11588;SDS011;5850;51.360;12.362;2022-10-16T05:16:50;2.00;;;1.20;;
11588;SDS011;5850;51.360;12.362;2022-10-16T05:19:19;1.00;;;1.00;;
11588;SDS011;5850;51.360;12.362;2022-10-16T05:21:53;1.10;;;1.00;;
11588;SDS011;5850;51.360;12.362;2022-10-16T05:24:21;2.33;;;1.00;;
11588;SDS011;5850;51.360;12.362;2022-10-16T05:26:50;1.27;;;1.10;;
11588;SDS011;5850;51.360;12.362;2022-10-16T05:29:18;2.03;;;1.00;;
11588;SDS011;5850;51.360;12.362;2022-10-16T05:31:49;1.67;;;1.00;;
11588;SDS011;5850;51.360;12.362;2022-10-16T05:34:20;2.50;;;0.80;;
11588;SDS011;5850;51.360;12.362;2022-10-16T05:36:49;1.30;;;1.20;;
11588;SDS011;5850;51.360;12.362;2022-10-16T05:39:21;1.10;;;1.00;;
11588;SDS011;5850;51.360;12.362;2022-10-16T05:41:49;1.17;;;1.17;;
11588;SDS011;5850;51.360;12.362;2022-10-16T05:44:18;1.23;;;0.90;;
11588;SDS011;5850;51.360;12.362;2022-10-16T05:46:47;1.20;;;1.10;;
11588;SDS011;5850;51.360;12.362;2022-10-16T05:49:15;1.40;;;1.30;;
11588;SDS011;5850;51.360;12.362;2022-10-16T05:51:44;1.17;;;1.10;;
11588;SDS011;5850;51.360;12.362;2022-10-16T05:54:12;1.40;;;1.30;;
11588;SDS011;5850;51.360;12.362;2022-10-16T05:56:41;1.40;;;1.30;;
11588;SDS011;5850;51.360;12.362;2022-10-16T05:59:09;1.30;;;1.20;;
11588;SDS011;5850;51.360;12.362;2022-10-16T06:01:37;1.57;;;1.47;;
11588;SDS011;5850;51.360;12.362;2022-10-16T06:04:06;2.00;;;1.30;;
11588;SDS011;5850;51.360;12.362;2022-10-16T06:06:35;1.50;;;1.40;;
11588;SDS011;5850;51.360;12.362;2022-10-16T06:09:04;1.30;;;1.20;;
11588;SDS011;5850;51.360;12.362;2022-10-16T06:11:32;0.90;;;0.90;;
11588;SDS011;5850;51.360;12.362;2022-10-16T06:14:01;2.00;;;1.00;;
11588;SDS011;5850;51.360;12.362;2022-10-16T06:16:33;2.90;;;1.03;;
11588;SDS011;5850;51.360;12.362;2022-10-16T06:19:03;0.90;;;0.90;;
11588;SDS011;5850;51.360;12.362;2022-10-16T06:21:32;2.10;;;1.00;;
11588;SDS011;5850;51.360;12.362;2022-10-16T06:24:01;1.50;;;1.07;;
11588;SDS011;5850;51.360;12.362;2022-10-16T06:26:29;1.27;;;1.17;;
11588;SDS011;5850;51.360;12.362;2022-10-16T06:28:59;1.10;;;0.97;;
11588;SDS011;5850;51.360;12.362;2022-10-16T06:31:27;3.43;;;1.30;;
11588;SDS011;5850;51.360;12.362;2022-10-16T06:33:57;2.43;;;1.20;;
11588;SDS011;5850;51.360;12.362;2022-10-16T06:36:26;1.53;;;0.90;;
11588;SDS011;5850;51.360;12.362;2022-10-16T06:38:55;1.70;;;1.00;;
11588;SDS011;5850;51.360;12.362;2022-10-16T06:41:23;1.77;;;1.20;;
11588;SDS011;5850;51.360;12.362;2022-10-16T06:43:52;2.53;;;1.20;;
11588;SDS011;5850;51.360;12.362;2022-10-16T06:46:21;1.60;;;1.50;;
11588;SDS011;5850;51.360;12.362;2022-10-16T06:48:54;1.30;;;1.20;;
11588;SDS011;5850;51.360;12.362;2022-10-16T06:51:23;1.83;;;1.07;;
11588;SDS011;5850;51.360;12.362;2022-10-16T06:53:53;2.00;;;1.07;;
11588;SDS011;5850;51.360;12.362;2022-10-16T06:56:28;1.10;;;1.03;;
11588;SDS011;5850;51.360;12.362;2022-10-16T06:58:58;1.63;;;1.00;;
11588;SDS011;5850;51.360;12.362;2022-10-16T07:01:27;3.10;;;1.00;;
11588;SDS011;5850;51.360;12.362;2022-10-16T07:03:56;1.13;;;1.13;;
11588;SDS011;5850;51.360;12.362;2022-10-16T07:06:25;1.50;;;1.00;;
11588;SDS011;5850;51.360;12.362;2022-10-16T07:08:54;1.00;;;0.90;;
11588;SDS011;5850;51.360;12.362;2022-10-16T07:11:23;1.07;;;0.97;;
11588;SDS011;5850;51.360;12.362;2022-10-16T07:13:52;2.20;;;1.07;;
11588;SDS011;5850;51.360;12.362;2022-10-16T07:16:28;1.03;;;1.03;;
11588;SDS011;5850;51.360;12.362;2022-10-16T07:18:59;1.30;;;1.20;;
11588;SDS011;5850;51.360;12.362;2022-10-16T07:21:30;1.43;;;1.03;;
11588;SDS011;5850;51.360;12.362;2022-10-16T07:24:02;2.33;;;1.20;;
11588;SDS011;5850;51.360;12.362;2022-10-16T07:26:34;2.10;;;1.10;;
11588;SDS011;5850;51.360;12.362;2022-10-16T07:29:06;2.17;;;1.20;;
11588;SDS011;5850;51.360;12.362;2022-10-16T07:31:41;1.33;;;1.23;;
11588;SDS011;5850;51.360;12.362;2022-10-16T07:34:11;1.20;;;1.10;;
11588;SDS011;5850;51.360;12.362;2022-10-16T07:36:40;1.00;;;1.00;;
11588;SDS011;5850;51.360;12.362;2022-10-16T07:39:08;1.30;;;1.20;;
11588;SDS011;5850;51.360;12.362;2022-10-16T07:41:36;0.80;;;0.80;;
11588;SDS011;5850;51.360;12.362;2022-10-16T07:44:05;2.40;;;1.30;;
11588;SDS011;5850;51.360;12.362;2022-10-16T07:46:34;1.07;;;1.00;;
11588;SDS011;5850;51.360;12.362;2022-10-16T07:49:03;1.50;;;1.20;;
11588;SDS011;5850;51.360;12.362;2022-10-16T07:51:31;2.00;;;1.07;;
11588;SDS011;5850;51.360;12.362;2022-10-16T07:54:00;1.10;;;1.00;;
11588;SDS011;5850;51.360;12.362;2022-10-16T07:56:29;1.53;;;0.93;;
11588;SDS011;5850;51.360;12.362;2022-10-16T07:58:59;0.97;;;0.90;;
11588;SDS011;5850;51.360;12.362;2022-10-16T08:01:27;0.90;;;0.90;;
11588;SDS011;5850;51.360;12.362;2022-10-16T08:03:56;0.80;;;0.80;;
11588;SDS011;5850;51.360;12.362;2022-10-16T08:06:24;0.97;;;0.90;;
11588;SDS011;5850;51.360;12.362;2022-10-16T08:08:53;1.73;;;1.00;;
11588;SDS011;5850;51.360;12.362;2022-10-16T08:11:22;0.77;;;0.77;;
11588;SDS011;5850;51.360;12.362;2022-10-16T08:13:51;0.80;;;0.80;;
11588;SDS011;5850;51.360;12.362;2022-10-16T08:16:21;1.27;;;1.17;;
11588;SDS011;5850;51.360;12.362;2022-10-16T08:18:49;2.80;;;1.10;;
11588;SDS011;5850;51.360;12.362;2022-10-16T08:21:19;1.03;;;0.70;;
11588;SDS011;5850;51.360;12.362;2022-10-16T08:23:50;0.90;;;0.90;;
11588;SDS011;5850;51.360;12.362;2022-10-16T08:26:24;1.70;;;0.77;;
11588;SDS011;5850;51.360;12.362;2022-10-16T08:28:53;0.63;;;0.63;;
11588;SDS011;5850;51.360;12.362;2022-10-16T08:31:22;0.80;;;0.73;;
11588;SDS011;5850;51.360;12.362;2022-10-16T08:33:52;1.03;;;0.60;;
11588;SDS011;5850;51.360;12.362;2022-10-16T08:36:21;0.50;;;0.50;;
11588;SDS011;5850;51.360;12.362;2022-10-16T08:38:49;0.67;;;0.67;;
11588;SDS011;5850;51.360;12.362;2022-10-16T08:47:45;1.13;;;0.60;;
11588;SDS011;5850;51.360;12.362;2022-10-16T08:50:29;1.60;;;0.60;;
11588;SDS011;5850;51.360;12.362;2022-10-16T08:52:59;0.43;;;0.40;;
11588;SDS011;5850;51.360;12.362;2022-10-16T08:58:39;1.27;;;0.50;;
11588;SDS011;5850;51.360;12.362;2022-10-16T09:01:00;0.43;;;0.43;;
11588;SDS011;5850;51.360;12.362;2022-10-16T09:06:55;0.50;;;0.50;;
11588;SDS011;5850;51.360;12.362;2022-10-16T09:15:44;0.50;;;0.50;;
11588;SDS011;5850;51.360;12.362;2022-10-16T09:18:23;0.40;;;0.40;;
11588;SDS011;5850;51.360;12.362;2022-10-16T09:21:05;1.40;;;0.50;;
11588;SDS011;5850;51.360;12.362;2022-10-16T09:24:39;0.57;;;0.57;;
11588;SDS011;5850;51.360;12.362;2022-10-16T09:27:37;0.50;;;0.50;;
11588;SDS011;5850;51.360;12.362;2022-10-16T09:30:11;1.90;;;0.63;;
11588;SDS011;5850;51.360;12.362;2022-10-16T09:32:46;1.90;;;0.60;;
11588;SDS011;5850;51.360;12.362;2022-10-16T09:35:31;0.77;;;0.40;;
11588;SDS011;5850;51.360;12.362;2022-10-16T09:38:05;1.10;;;1.00;;
11588;SDS011;5850;51.360;12.362;2022-10-16T09:40:36;0.77;;;0.67;;
11588;SDS011;5850;51.360;12.362;2022-10-16T09:43:15;0.50;;;0.50;;
11588;SDS011;5850;51.360;12.362;2022-10-16T09:49:16;1.00;;;0.57;;
11588;SDS011;5850;51.360;12.362;2022-10-16T09:52:03;1.70;;;0.90;;
11588;SDS011;5850;51.360;12.362;2022-10-16T09:54:37;0.60;;;0.60;;
11588;SDS011;5850;51.360;12.362;2022-10-16T09:57:16;0.80;;;0.80;;
11588;SDS011;5850;51.360;12.362;2022-10-16T09:59:45;0.70;;;0.70;;
11588;SDS011;5850;51.360;12.362;2022-10-16T10:02:16;0.80;;;0.80;;
11588;SDS011;5850;51.360;12.362;2022-10-16T10:05:05;0.60;;;0.60;;
11588;SDS011;5850;51.360;12.362;2022-10-16T10:08:02;1.70;;;0.80;;
11588;SDS011;5850;51.360;12.362;2022-10-16T10:10:33;0.80;;;0.80;;
11588;SDS011;5850;51.360;12.362;2022-10-16T10:13:19;0.80;;;0.80;;
11588;SDS011;5850;51.360;12.362;2022-10-16T10:15:50;1.77;;;0.87;;
11588;SDS011;5850;51.360;12.362;2022-10-16T10:18:20;0.90;;;0.90;;
11588;SDS011;5850;51.360;12.362;2022-10-16T10:20:57;1.10;;;1.00;;
11588;SDS011;5850;51.360;12.362;2022-10-16T10:23:30;0.87;;;0.87;;
11588;SDS011;5850;51.360;12.362;2022-10-16T10:28:38;1.43;;;1.20;;
11588;SDS011;5850;51.360;12.362;2022-10-16T10:32:00;0.90;;;0.90;;
11588;SDS011;5850;51.360;12.362;2022-10-16T10:40:40;2.27;;;0.80;;
11588;SDS011;5850;51.360;12.362;2022-10-16T10:46:05;0.60;;;0.60;;
11588;SDS011;5850;51.360;12.362;2022-10-16T10:57:54;1.47;;;1.20;;
11588;SDS011;5850;51.360;12.362;2022-10-16T11:07:00;0.93;;;0.93;;
11588;SDS011;5850;51.360;12.362;2022-10-16T11:09:34;1.10;;;1.00;;
11588;SDS011;5850;51.360;12.362;2022-10-16T11:12:19;0.80;;;0.80;;
11588;SDS011;5850;51.360;12.362;2022-10-16T11:15:14;1.23;;;1.03;;
11588;SDS011;5850;51.360;12.362;2022-10-16T11:17:59;1.43;;;0.90;;
11588;SDS011;5850;51.360;12.362;2022-10-16T11:20:42;1.20;;;1.03;;
11588;SDS011;5850;51.360;12.362;2022-10-16T11:23:33;1.27;;;1.17;;
11588;SDS011;5850;51.360;12.362;2022-10-16T11:26:34;1.03;;;1.03;;
11588;SDS011;5850;51.360;12.362;2022-10-16T11:29:12;0.90;;;0.90;;
11588;SDS011;5850;51.360;12.362;2022-10-16T11:32:01;1.30;;;1.20;;
11588;SDS011;5850;51.360;12.362;2022-10-16T11:34:44;1.17;;;1.10;;
11588;SDS011;5850;51.360;12.362;2022-10-16T11:37:24;0.90;;;0.90;;
11588;SDS011;5850;51.360;12.362;2022-10-16T11:40:16;1.40;;;1.37;;
11588;SDS011;5850;51.360;12.362;2022-10-16T11:43:12;1.13;;;1.00;;
11588;SDS011;5850;51.360;12.362;2022-10-16T11:46:31;1.13;;;1.10;;
11588;SDS011;5850;51.360;12.362;2022-10-16T11:48:45;1.93;;;1.10;;
11588;SDS011;5850;51.360;12.362;2022-10-16T11:51:36;1.20;;;1.00;;
11588;SDS011;5850;51.360;12.362;2022-10-16T11:57:08;1.47;;;1.17;;
11588;SDS011;5850;51.360;12.362;2022-10-16T12:00:08;2.03;;;1.30;;
11588;SDS011;5850;51.360;12.362;2022-10-16T12:08:47;1.40;;;1.27;;
11588;SDS011;5850;51.360;12.362;2022-10-16T12:16:56;1.60;;;1.50;;
11588;SDS011;5850;51.360;12.362;2022-10-16T12:19:58;3.03;;;1.30;;
11588;SDS011;5850;51.360;12.362;2022-10-16T12:22:49;1.40;;;1.30;;
11588;SDS011;5850;51.360;12.362;2022-10-16T12:28:05;1.40;;;1.30;;
11588;SDS011;5850;51.360;12.362;2022-10-16T12:30:53;1.77;;;1.20;;
11588;SDS011;5850;51.360;12.362;2022-10-16T12:33:30;1.10;;;1.10;;
11588;SDS011;5850;51.360;12.362;2022-10-16T12:36:11;1.27;;;1.13;;
11588;SDS011;5850;51.360;12.362;2022-10-16T12:38:53;0.90;;;0.90;;
11588;SDS011;5850;51.360;12.362;2022-10-16T12:41:32;1.53;;;1.00;;
11588;SDS011;5850;51.360;12.362;2022-10-16T12:44:20;0.70;;;0.70;;
11588;SDS011;5850;51.360;12.362;2022-10-16T12:46:52;1.20;;;1.10;;
11588;SDS011;5850;51.360;12.362;2022-10-16T12:49:22;1.07;;;0.97;;
11588;SDS011;5850;51.360;12.362;2022-10-16T12:52:22;1.43;;;1.33;;
11588;SDS011;5850;51.360;12.362;2022-10-16T12:55:04;1.17;;;1.10;;
11588;SDS011;5850;51.360;12.362;2022-10-16T13:06:11;1.60;;;0.80;;
11588;SDS011;5850;51.360;12.362;2022-10-16T13:12:15;0.80;;;0.80;;
11588;SDS011;5850;51.360;12.362;2022-10-16T13:18:09;0.50;;;0.50;;
11588;SDS011;5850;51.360;12.362;2022-10-16T13:29:13;1.10;;;1.00;;
11588;SDS011;5850;51.360;12.362;2022-10-16T13:31:42;0.80;;;0.80;;
11588;SDS011;5850;51.360;12.362;2022-10-16T13:34:15;1.07;;;0.90;;
11588;SDS011;5850;51.360;12.362;2022-10-16T13:36:49;1.97;;;1.17;;
11588;SDS011;5850;51.360;12.362;2022-10-16T13:39:26;3.27;;;1.10;;
11588;SDS011;5850;51.360;12.362;2022-10-16T13:41:58;4.53;;;1.30;;
11588;SDS011;5850;51.360;12.362;2022-10-16T13:44:46;0.80;;;0.80;;
11588;SDS011;5850;51.360;12.362;2022-10-16T13:47:21;1.87;;;1.20;;
11588;SDS011;5850;51.360;12.362;2022-10-16T13:50:02;0.97;;;0.97;;
11588;SDS011;5850;51.360;12.362;2022-10-16T13:52:36;0.83;;;0.83;;
11588;SDS011;5850;51.360;12.362;2022-10-16T13:57:41;0.73;;;0.73;;
11588;SDS011;5850;51.360;12.362;2022-10-16T14:00:17;0.80;;;0.80;;
11588;SDS011;5850;51.360;12.362;2022-10-16T14:02:51;1.20;;;0.90;;
11588;SDS011;5850;51.360;12.362;2022-10-16T14:05:28;1.00;;;0.90;;
11588;SDS011;5850;51.360;12.362;2022-10-16T14:07:57;0.90;;;0.90;;
11588;SDS011;5850;51.360;12.362;2022-10-16T14:10:29;0.80;;;0.80;;
11588;SDS011;5850;51.360;12.362;2022-10-16T14:13:00;1.00;;;0.90;;
11588;SDS011;5850;51.360;12.362;2022-10-16T14:15:32;0.93;;;0.93;;
11588;SDS011;5850;51.360;12.362;2022-10-16T14:18:02;0.90;;;0.90;;
11588;SDS011;5850;51.360;12.362;2022-10-16T14:20:32;1.13;;;0.90;;
11588;SDS011;5850;51.360;12.362;2022-10-16T14:23:03;1.30;;;0.83;;
11588;SDS011;5850;51.360;12.362;2022-10-16T14:25:46;0.80;;;0.80;;
11588;SDS011;5850;51.360;12.362;2022-10-16T14:30:54;2.07;;;1.30;;
11588;SDS011;5850;51.360;12.362;2022-10-16T14:36:05;1.87;;;1.10;;
11588;SDS011;5850;51.360;12.362;2022-10-16T14:38:41;2.37;;;1.33;;
11588;SDS011;5850;51.360;12.362;2022-10-16T14:41:19;0.97;;;0.93;;
11588;SDS011;5850;51.360;12.362;2022-10-16T14:43:50;28.43;;;2.10;;
11588;SDS011;5850;51.360;12.362;2022-10-16T14:46:23;3.83;;;1.23;;
11588;SDS011;5850;51.360;12.362;2022-10-16T14:51:38;1.20;;;1.10;;
11588;SDS011;5850;51.360;12.362;2022-10-16T14:54:08;2.33;;;1.20;;
11588;SDS011;5850;51.360;12.362;2022-10-16T14:59:27;1.93;;;1.40;;
11588;SDS011;5850;51.360;12.362;2022-10-16T15:02:16;3.27;;;1.23;;
11588;SDS011;5850;51.360;12.362;2022-10-16T15:05:19;2.10;;;1.20;;
11588;SDS011;5850;51.360;12.362;2022-10-16T15:07:49;2.50;;;2.20;;
11588;SDS011;5850;51.360;12.362;2022-10-16T15:10:21;2.10;;;1.90;;
11588;SDS011;5850;51.360;12.362;2022-10-16T15:12:51;2.73;;;2.03;;
11588;SDS011;5850;51.360;12.362;2022-10-16T15:17:54;1.83;;;1.73;;
11588;SDS011;5850;51.360;12.362;2022-10-16T15:20:27;2.13;;;1.47;;
11588;SDS011;5850;51.360;12.362;2022-10-16T15:23:00;2.20;;;1.60;;
11588;SDS011;5850;51.360;12.362;2022-10-16T15:25:37;3.23;;;1.53;;
11588;SDS011;5850;51.360;12.362;2022-10-16T15:28:09;1.40;;;1.30;;
11588;SDS011;5850;51.360;12.362;2022-10-16T15:30:38;1.67;;;1.57;;
11588;SDS011;5850;51.360;12.362;2022-10-16T15:33:14;2.47;;;1.93;;
11588;SDS011;5850;51.360;12.362;2022-10-16T15:35:46;3.83;;;2.23;;
11588;SDS011;5850;51.360;12.362;2022-10-16T15:38:15;2.20;;;2.00;;
11588;SDS011;5850;51.360;12.362;2022-10-16T15:40:46;3.07;;;1.90;;
11588;SDS011;5850;51.360;12.362;2022-10-16T15:43:15;2.87;;;1.87;;
11588;SDS011;5850;51.360;12.362;2022-10-16T15:45:43;1.83;;;1.60;;
11588;SDS011;5850;51.360;12.362;2022-10-16T15:48:15;1.70;;;1.50;;
11588;SDS011;5850;51.360;12.362;2022-10-16T15:50:43;1.87;;;1.60;;
11588;SDS011;5850;51.360;12.362;2022-10-16T15:53:11;1.80;;;1.70;;
11588;SDS011;5850;51.360;12.362;2022-10-16T15:55:39;2.63;;;2.03;;
11588;SDS011;5850;51.360;12.362;2022-10-16T15:58:08;1.60;;;1.50;;
11588;SDS011;5850;51.360;12.362;2022-10-16T16:00:36;3.13;;;1.60;;
11588;SDS011;5850;51.360;12.362;2022-10-16T16:03:05;1.70;;;1.60;;
11588;SDS011;5850;51.360;12.362;2022-10-16T16:05:37;1.73;;;1.63;;
11588;SDS011;5850;51.360;12.362;2022-10-16T16:08:11;3.17;;;2.07;;
11588;SDS011;5850;51.360;12.362;2022-10-16T16:10:40;2.40;;;2.20;;
11588;SDS011;5850;51.360;12.362;2022-10-16T16:13:08;1.60;;;1.50;;
11588;SDS011;5850;51.360;12.362;2022-10-16T16:15:39;2.03;;;1.77;;
11588;SDS011;5850;51.360;12.362;2022-10-16T16:18:08;2.93;;;1.60;;
11588;SDS011;5850;51.360;12.362;2022-10-16T16:20:36;2.27;;;2.00;;
11588;SDS011;5850;51.360;12.362;2022-10-16T16:23:05;2.30;;;2.10;;
11588;SDS011;5850;51.360;12.362;2022-10-16T16:25:33;3.47;;;1.87;;
11588;SDS011;5850;51.360;12.362;2022-10-16T16:28:02;5.67;;;2.10;;
11588;SDS011;5850;51.360;12.362;2022-10-16T16:30:30;6.27;;;1.60;;
11588;SDS011;5850;51.360;12.362;2022-10-16T16:32:59;1.80;;;1.70;;
11588;SDS011;5850;51.360;12.362;2022-10-16T16:35:27;1.77;;;1.60;;
11588;SDS011;5850;51.360;12.362;2022-10-16T16:37:56;2.17;;;1.70;;
11588;SDS011;5850;51.360;12.362;2022-10-16T16:40:24;1.57;;;1.40;;
11588;SDS011;5850;51.360;12.362;2022-10-16T16:42:53;3.87;;;1.90;;
11588;SDS011;5850;51.360;12.362;2022-10-16T16:45:22;2.33;;;1.73;;
11588;SDS011;5850;51.360;12.362;2022-10-16T16:47:56;2.37;;;1.90;;
11588;SDS011;5850;51.360;12.362;2022-10-16T16:50:24;3.30;;;1.70;;
11588;SDS011;5850;51.360;12.362;2022-10-16T16:52:53;2.10;;;1.90;;
11588;SDS011;5850;51.360;12.362;2022-10-16T16:55:21;2.93;;;2.60;;
11588;SDS011;5850;51.360;12.362;2022-10-16T16:57:50;3.10;;;2.50;;
11588;SDS011;5850;51.360;12.362;2022-10-16T17:00:18;2.83;;;2.20;;
11588;SDS011;5850;51.360;12.362;2022-10-16T17:02:49;2.53;;;2.10;;
11588;SDS011;5850;51.360;12.362;2022-10-16T17:05:18;2.33;;;2.13;;
11588;SDS011;5850;51.360;12.362;2022-10-16T17:07:46;3.20;;;2.07;;
11588;SDS011;5850;51.360;12.362;2022-10-16T17:10:15;2.40;;;1.70;;
11588;SDS011;5850;51.360;12.362;2022-10-16T17:12:43;3.10;;;1.90;;
11588;SDS011;5850;51.360;12.362;2022-10-16T17:15:11;2.80;;;1.97;;
11588;SDS011;5850;51.360;12.362;2022-10-16T17:17:40;4.90;;;1.80;;
11588;SDS011;5850;51.360;12.362;2022-10-16T17:20:08;2.13;;;1.93;;
11588;SDS011;5850;51.360;12.362;2022-10-16T17:22:37;4.33;;;2.23;;